Time;durP1;ratioP1;P1;durP2;ratioP2;P2;SDS_P1;SDS_P2;PMS_P1;PMS_P2;Temp;Humidity;BMP_temperature;BMP_pressure;BME280_temperature;BME280_humidity;BME280_pressure;Samples;Min_cycle;Max_cycle;Signal;HPM_P1;HPM_P2
2022/09/28 00:01:22;;;;;;;20.70;18.50;;;;;;;9.38;100.00;96264.71;107621;1282;22549;-90
2022/09/28 00:03:58;;;;;;;19.90;18.00;;;;;;;9.33;100.00;96263.27;107546;1282;22558;-84
2022/09/28 00:06:29;;;;;;;21.30;18.10;;;;;;;9.30;100.00;96266.45;105660;1282;24380;-82
2022/09/28 00:08:57;;;;;;;19.80;17.80;;;;;;;9.26;100.00;96266.30;105746;1283;25250;-84
2022/09/28 00:11:27;;;;;;;19.30;17.30;;;;;;;9.23;100.00;96269.64;106057;1282;22497;-91
2022/09/28 00:13:58;;;;;;;20.40;17.60;;;;;;;9.21;100.00;96272.19;106336;1282;23960;-90
2022/09/28 00:16:31;;;;;;;21.30;19.20;;;;;;;9.20;100.00;96270.46;106522;1282;25369;-90
2022/09/28 00:19:00;;;;;;;21.70;19.60;;;;;;;9.17;100.00;96273.56;106877;1282;22706;-91
2022/09/28 00:21:33;;;;;;;21.80;19.50;;;;;;;9.13;100.00;96273.05;106649;1282;22718;-91
2022/09/28 00:24:16;;;;;;;19.20;17.40;;;;;;;9.13;100.00;96274.25;106815;1282;26637;-92
2022/09/28 00:26:50;;;;;;;21.50;19.20;;;;;;;9.13;100.00;96275.52;106750;1282;22712;-91
2022/09/28 00:29:33;;;;;;;22.00;19.90;;;;;;;9.15;100.00;96271.14;106944;1282;22571;-88
2022/09/28 00:32:12;;;;;;;20.70;18.60;;;;;;;9.19;100.00;96270.81;106697;1283;23060;-92
2022/09/28 00:34:44;;;;;;;24.20;21.90;;;;;;;9.21;100.00;96269.43;106776;1282;22698;-92
2022/09/28 00:37:14;;;;;;;22.00;19.70;;;;;;;9.23;100.00;96268.09;107084;1282;22566;-91
2022/09/28 00:39:42;;;;;;;22.70;20.50;;;;;;;9.23;100.00;96260.80;107012;1282;24335;-90
2022/09/28 00:42:16;;;;;;;29.20;26.20;;;;;;;9.24;100.00;96255.80;107558;1282;25331;-91
2022/09/28 00:44:47;;;;;;;28.40;25.60;;;;;;;9.25;100.00;96254.06;106745;1282;22763;-90
2022/09/28 00:47:33;;;;;;;22.50;20.10;;;;;;;9.26;100.00;96250.05;107268;1282;22497;-90
2022/09/28 00:50:09;;;;;;;23.80;21.40;;;;;;;9.30;100.00;96254.02;108802;1282;22794;-89
2022/09/28 00:52:53;;;;;;;26.00;23.60;;;;;;;9.31;100.00;96254.56;108565;1282;22669;-89
2022/09/28 00:55:35;;;;;;;24.40;22.00;;;;;;;9.31;100.00;96261.95;107730;1284;23963;-90
2022/09/28 00:58:07;;;;;;;22.50;20.20;;;;;;;9.30;100.00;96260.30;106684;1284;22666;-89
2022/09/28 01:00:36;;;;;;;22.00;19.90;;;;;;;9.29;100.00;96261.10;106862;1282;22601;-92
2022/09/28 01:03:04;;;;;;;22.70;19.70;;;;;;;9.27;100.00;96259.91;106877;1283;22875;-90
2022/09/28 01:05:33;;;;;;;22.10;20.00;;;;;;;9.29;100.00;96255.74;106754;1283;23070;-90
2022/09/28 01:08:03;;;;;;;22.70;20.50;;;;;;;9.29;100.00;96257.74;106876;1284;22552;-91
2022/09/28 01:10:32;;;;;;;23.30;21.20;;;;;;;9.27;100.00;96259.88;106749;1284;22692;-90
2022/09/28 01:13:00;;;;;;;23.40;21.30;;;;;;;9.24;100.00;96261.85;107664;1281;22586;-91
2022/09/28 01:15:30;;;;;;;23.70;21.40;;;;;;;9.22;100.00;96262.61;107406;1284;23402;-87
2022/09/28 01:21:19;;;;;;;18.70;17.00;;;;;;;9.25;100.00;96264.64;108371;1280;24220;-88
2022/09/28 01:24:03;;;;;;;21.30;19.00;;;;;;;9.25;100.00;96264.35;108075;1280;22567;-91
2022/09/28 01:29:25;;;;;;;24.80;18.60;;;;;;;9.18;100.00;96266.25;107652;1281;25362;-90
2022/09/28 01:32:28;;;;;;;16.20;14.50;;;;;;;9.18;100.00;96269.77;108042;1280;23077;-88
2022/09/28 01:35:13;;;;;;;17.80;15.30;;;;;;;9.16;100.00;96264.67;108056;1281;24362;-94
2022/09/28 01:37:46;;;;;;;16.20;14.70;;;;;;;9.14;100.00;96270.16;107698;1281;22725;-90
2022/09/28 01:40:16;;;;;;;14.60;13.10;;;;;;;9.12;100.00;96273.34;107953;1281;22881;-90
2022/09/28 01:42:52;;;;;;;15.60;12.70;;;;;;;9.08;100.00;96272.73;107760;1281;22663;-94
2022/09/28 01:45:30;;;;;;;12.40;11.20;;;;;;;9.04;100.00;96273.40;108249;1279;22554;-92
2022/09/28 01:48:03;;;;;;;13.60;10.20;;;;;;;9.03;100.00;96273.91;108162;1281;22945;-91
2022/09/28 01:50:41;;;;;;;11.30;9.70;;;;;;;9.00;100.00;96274.95;107815;1279;24199;-93
2022/09/28 01:53:15;;;;;;;11.40;9.50;;;;;;;8.97;100.00;96275.67;107989;1281;22714;-90
2022/09/28 01:55:53;;;;;;;10.40;8.90;;;;;;;8.95;100.00;96272.00;106954;1279;25322;-90
2022/09/28 01:58:44;;;;;;;12.40;8.80;;;;;;;8.93;100.00;96275.60;107458;1281;22579;-92
2022/09/28 02:01:22;;;;;;;10.00;8.20;;;;;;;8.90;100.00;96276.73;107916;1281;22613;-91
2022/09/28 02:06:48;;;;;;;8.60;7.40;;;;;;;8.76;100.00;96273.13;109316;1281;22536;-84
2022/09/28 02:12:09;;;;;;;8.50;6.50;;;;;;;8.66;100.00;96272.62;108418;1281;22662;-88
2022/09/28 02:14:42;;;;;;;10.50;7.20;;;;;;;8.60;100.00;96277.71;105574;1281;22703;-83
2022/09/28 02:17:11;;;;;;;9.20;6.90;;;;;;;8.57;100.00;96286.92;105752;1284;22849;-84
2022/09/28 02:19:40;;;;;;;7.70;6.50;;;;;;;8.54;100.00;96287.80;106020;1281;25373;-83
2022/09/28 02:22:26;;;;;;;9.40;6.40;;;;;;;8.50;100.00;96289.34;105976;1281;26421;-84
2022/09/28 02:24:56;;;;;;;8.00;6.60;;;;;;;8.48;100.00;96291.55;106751;1281;22534;-92
2022/09/28 02:27:43;;;;;;;7.90;5.40;;;;;;;8.47;100.00;96297.20;107749;1281;22619;-93
2022/09/28 02:30:11;;;;;;;7.20;5.50;;;;;;;8.43;100.00;96296.34;108001;1281;25377;-92
2022/09/28 02:32:43;;;;;;;9.50;6.00;;;;;;;8.39;100.00;96297.41;108207;1281;23744;-90
2022/09/28 02:35:15;;;;;;;7.60;6.40;;;;;;;8.31;100.00;96290.50;108519;1281;22894;-90
2022/09/28 02:37:45;;;;;;;8.50;6.30;;;;;;;8.26;100.00;96291.19;108431;1281;23807;-88
2022/09/28 02:40:19;;;;;;;9.50;7.50;;;;;;;8.22;100.00;96291.42;108773;1281;22651;-87
2022/09/28 02:43:12;;;;;;;11.20;8.50;;;;;;;8.18;100.00;96289.27;108542;1281;22549;-92
2022/09/28 02:45:55;;;;;;;10.00;9.00;;;;;;;8.11;100.00;96287.84;108210;1281;25284;-92
2022/09/28 02:48:32;;;;;;;10.50;8.80;;;;;;;8.06;100.00;96289.12;106888;1281;22497;-90
2022/09/28 02:51:53;;;;;;;10.00;7.30;;;;;;;8.02;99.78;96285.27;107206;1281;23936;-92
2022/09/28 02:55:02;;;;;;;10.80;7.50;;;;;;;7.99;99.83;96286.42;107102;1281;23246;-92
2022/09/28 02:57:32;;;;;;;11.50;7.40;;;;;;;7.89;99.93;96292.48;106936;1283;24214;-90
2022/09/28 03:00:11;;;;;;;8.90;7.20;;;;;;;7.81;99.98;96296.90;106903;1283;25422;-90
2022/09/28 03:03:11;;;;;;;9.10;8.20;;;;;;;7.73;99.77;96298.17;106494;1283;25922;-91
2022/09/28 03:05:59;;;;;;;8.10;7.30;;;;;;;7.70;99.74;96300.87;106821;1283;22544;-90
2022/09/28 03:08:37;;;;;;;8.90;8.00;;;;;;;7.67;99.73;96295.48;107005;1284;22617;-92
2022/09/28 03:11:27;;;;;;;10.20;8.20;;;;;;;7.65;99.86;96296.15;107259;1282;25357;-91
2022/09/28 03:13:56;;;;;;;10.70;9.60;;;;;;;7.61;99.75;96295.66;107250;1283;23477;-90
2022/09/28 03:16:34;;;;;;;10.20;8.30;;;;;;;7.54;99.62;96291.37;107001;1283;22642;-87
2022/09/28 03:19:02;;;;;;;9.30;8.10;;;;;;;7.50;99.81;96288.01;106623;1283;26558;-91
2022/09/28 03:21:30;;;;;;;8.40;7.50;;;;;;;7.46;99.64;96291.13;107757;1283;22697;-85
2022/09/28 03:23:58;;;;;;;8.60;7.20;;;;;;;7.39;99.67;96294.20;108523;1282;22478;-91
2022/09/28 03:26:26;;;;;;;9.20;7.00;;;;;;;7.35;99.55;96292.03;108684;1284;22906;-80
2022/09/28 03:28:54;;;;;;;8.30;7.50;;;;;;;7.32;99.48;96292.98;109184;1281;22546;-81
2022/09/28 03:31:23;;;;;;;10.20;8.20;;;;;;;7.30;99.54;96293.96;109250;1280;22619;-81
2022/09/28 03:33:51;;;;;;;16.20;13.40;;;;;;;7.27;99.57;96295.54;109242;1281;22598;-82
2022/09/28 03:36:19;;;;;;;8.50;7.70;;;;;;;7.23;99.58;96294.15;108583;1281;22615;-87
2022/09/28 03:38:47;;;;;;;11.10;10.10;;;;;;;7.23;99.40;96292.84;109294;1281;22697;-86
2022/09/28 03:41:15;;;;;;;14.50;12.70;;;;;;;7.22;99.33;96289.25;109091;1281;22549;-88
2022/09/28 03:43:43;;;;;;;12.40;11.20;;;;;;;7.22;99.29;96293.85;109229;1281;23703;-93
2022/09/28 03:46:12;;;;;;;9.80;8.80;;;;;;;7.21;99.52;96293.42;108991;1281;22658;-91
2022/09/28 03:48:45;;;;;;;9.20;8.10;;;;;;;7.18;99.22;96298.66;107563;1281;22694;-89
2022/09/28 03:51:13;;;;;;;11.90;10.60;;;;;;;7.14;99.36;96299.36;106682;1281;22541;-92
2022/09/28 03:53:41;;;;;;;11.90;9.30;;;;;;;7.08;99.29;96301.11;106917;1281;22649;-89
2022/09/28 03:56:16;;;;;;;11.80;8.60;;;;;;;7.06;99.26;96310.20;106965;1281;24374;-88
2022/09/28 03:58:44;;;;;;;10.10;8.40;;;;;;;7.03;99.12;96314.98;106887;1281;23968;-86
2022/09/28 04:01:16;;;;;;;10.90;9.90;;;;;;;6.97;98.73;96321.68;106813;1281;23332;-90
2022/09/28 04:03:52;;;;;;;26.00;23.70;;;;;;;6.82;98.56;96314.70;106411;1281;22549;-91
2022/09/28 04:06:22;;;;;;;20.80;13.50;;;;;;;6.71;98.58;96318.94;106716;1281;24452;-91
2022/09/28 04:08:51;;;;;;;12.10;10.80;;;;;;;6.64;99.00;96313.71;107590;1281;24123;-90
2022/09/28 04:11:28;;;;;;;15.40;10.40;;;;;;;6.60;99.15;96314.23;107687;1280;22613;-91
2022/09/28 04:14:16;;;;;;;11.60;10.40;;;;;;;6.65;99.71;96315.20;107071;1281;23108;-91
2022/09/28 04:16:44;;;;;;;13.40;10.80;;;;;;;6.70;99.43;96311.95;107453;1281;22790;-90
2022/09/28 04:19:23;;;;;;;14.00;12.50;;;;;;;6.75;99.62;96310.62;107481;1281;22609;-90
2022/09/28 04:22:16;;;;;;;18.50;15.70;;;;;;;6.77;99.60;96306.23;107349;1281;22604;-90
2022/09/28 04:24:45;;;;;;;21.10;19.20;;;;;;;6.76;99.61;96307.04;107626;1281;22586;-88
2022/09/28 04:30:00;;;;;;;15.80;14.20;;;;;;;6.85;99.70;96305.89;107529;1280;22564;-92
2022/09/28 04:32:29;;;;;;;15.40;13.20;;;;;;;6.90;99.58;96301.98;107849;1281;24253;-91
2022/09/28 04:34:57;;;;;;;17.60;16.00;;;;;;;6.96;99.73;96302.09;108036;1281;22594;-90
2022/09/28 04:37:25;;;;;;;21.10;19.10;;;;;;;7.00;99.84;96299.48;108156;1281;22747;-85
2022/09/28 04:39:53;;;;;;;19.20;17.40;;;;;;;7.03;99.75;96302.52;108756;1281;24984;-87
2022/09/28 04:42:21;;;;;;;23.10;21.10;;;;;;;7.02;99.55;96305.05;108171;1281;22568;-89
2022/09/28 04:44:50;;;;;;;20.50;18.60;;;;;;;7.02;99.53;96307.45;106575;1281;24262;-88
2022/09/28 04:47:18;;;;;;;15.00;13.50;;;;;;;7.04;99.46;96306.31;106275;1280;22698;-92
2022/09/28 04:49:48;;;;;;;16.50;14.70;;;;;;;7.06;99.49;96303.11;106275;1281;22588;-93
2022/09/28 04:52:31;;;;;;;13.30;11.90;;;;;;;7.08;99.60;96301.11;106205;1281;23309;-89
2022/09/28 04:54:58;;;;;;;14.50;11.70;;;;;;;7.08;99.55;96297.02;106322;1281;22558;-90
2022/09/28 04:57:26;;;;;;;14.10;11.70;;;;;;;7.07;99.63;96298.20;106355;1281;22808;-89
2022/09/28 04:59:54;;;;;;;11.20;9.20;;;;;;;7.06;99.75;96299.13;106345;1280;22592;-88
2022/09/28 05:02:23;;;;;;;10.40;9.30;;;;;;;7.07;99.65;96300.45;105811;1281;25439;-90
2022/09/28 05:05:11;;;;;;;10.10;9.20;;;;;;;7.08;99.79;96296.29;106201;1281;22616;-90
2022/09/28 05:07:48;;;;;;;10.30;9.40;;;;;;;7.08;99.61;96300.57;106262;1281;26233;-86
2022/09/28 05:10:18;;;;;;;11.20;10.10;;;;;;;7.08;99.61;96300.41;105862;1281;22711;-89
2022/09/28 05:12:47;;;;;;;15.40;14.00;;;;;;;7.11;99.91;96302.21;106283;1281;23098;-88
2022/09/28 05:15:16;;;;;;;24.30;22.40;;;;;;;7.19;99.92;96299.83;106275;1281;23166;-90
2022/09/28 05:17:44;;;;;;;24.20;22.00;;;;;;;7.30;99.98;96299.85;106002;1281;25429;-88
2022/09/28 05:20:21;;;;;;;17.00;15.50;;;;;;;7.41;99.97;96290.70;105971;1281;24233;-90
2022/09/28 05:22:49;;;;;;;12.00;11.00;;;;;;;7.52;99.81;96289.77;105995;1281;25332;-87
2022/09/28 05:25:18;;;;;;;18.80;17.20;;;;;;;7.57;99.71;96290.83;105903;1281;23332;-89
2022/09/28 05:27:56;;;;;;;22.40;20.20;;;;;;;7.60;99.82;96289.81;105985;1281;25548;-89
2022/09/28 05:30:46;;;;;;;22.00;20.20;;;;;;;7.59;99.64;96286.07;106127;1281;22714;-91
2022/09/28 05:33:26;;;;;;;24.10;22.00;;;;;;;7.58;99.58;96288.48;106101;1281;22697;-90
2022/09/28 05:36:10;;;;;;;17.10;15.70;;;;;;;7.62;99.41;96294.11;106180;1281;22539;-86
2022/09/28 05:38:38;;;;;;;20.70;19.00;;;;;;;7.66;99.30;96298.17;105785;1281;24079;-89
2022/09/28 05:41:05;;;;;;;30.20;27.90;;;;;;;7.67;99.62;96299.23;106026;1281;22577;-90
2022/09/28 05:43:34;;;;;;;31.50;28.40;;;;;;;7.69;99.69;96303.20;106113;1281;22886;-90
2022/09/28 05:46:05;;;;;;;32.30;29.60;;;;;;;7.69;99.62;96302.83;105960;1281;24243;-89
2022/09/28 05:48:35;;;;;;;15.80;14.30;;;;;;;7.70;99.29;96304.33;105559;1281;22741;-89
2022/09/28 05:51:04;;;;;;;14.20;13.00;;;;;;;7.69;99.11;96308.34;107022;1281;22569;-89
2022/09/28 05:53:31;;;;;;;19.40;17.40;;;;;;;7.72;99.27;96309.92;108198;1279;22659;-86
2022/09/28 05:56:00;;;;;;;38.50;35.30;;;;;;;7.72;99.36;96315.74;106347;1281;22536;-89
2022/09/28 05:58:31;;;;;;;33.30;30.60;;;;;;;7.72;99.09;96316.23;106569;1281;25238;-89
2022/09/28 06:00:59;;;;;;;19.80;18.10;;;;;;;7.73;98.68;96315.58;105692;1281;24113;-90
2022/09/28 06:03:27;;;;;;;14.80;13.40;;;;;;;7.73;98.81;96319.79;106747;1281;26512;-90
2022/09/28 06:05:55;;;;;;;11.70;10.50;;;;;;;7.78;98.83;96321.80;106541;1281;25120;-88
2022/09/28 06:08:24;;;;;;;16.30;12.10;;;;;;;7.78;98.11;96320.28;107151;1281;23037;-90
2022/09/28 06:11:06;;;;;;;34.40;18.80;;;;;;;7.78;97.91;96317.08;106668;1281;22572;-92
2022/09/28 06:13:34;;;;;;;15.30;10.40;;;;;;;7.76;97.92;96319.59;107080;1279;24031;-89
2022/09/28 06:16:03;;;;;;;12.90;10.70;;;;;;;7.80;97.79;96324.64;107571;1281;24212;-92
2022/09/28 06:18:31;;;;;;;13.60;9.30;;;;;;;7.72;97.46;96305.62;107880;1278;22536;-92
2022/09/28 06:21:16;;;;;;;13.20;10.60;;;;;;;7.87;97.53;96326.80;107942;1281;22727;-90
2022/09/28 06:23:46;;;;;;;19.70;17.90;;;;;;;7.87;97.46;96333.31;106737;1281;22570;-88
2022/09/28 06:26:17;;;;;;;19.60;17.70;;;;;;;7.88;97.32;96330.89;106970;1281;25922;-93
2022/09/28 06:28:46;;;;;;;19.70;17.70;;;;;;;7.92;97.71;96329.83;106604;1281;22704;-92
2022/09/28 06:31:14;;;;;;;17.20;14.40;;;;;;;8.00;97.92;96330.10;106264;1281;22528;-89
2022/09/28 06:33:47;;;;;;;19.10;10.70;;;;;;;8.10;97.37;96320.28;105751;1281;22599;-88
2022/09/28 06:36:18;;;;;;;8.50;7.50;;;;;;;8.16;96.99;96314.34;107018;1281;25246;-92
2022/09/28 06:38:46;;;;;;;11.10;8.20;;;;;;;8.16;96.58;96306.54;106640;1281;22561;-89
2022/09/28 06:41:18;;;;;;;12.10;8.80;;;;;;;8.26;96.87;96307.20;107108;1281;25361;-92
2022/09/28 06:43:47;;;;;;;13.10;10.20;;;;;;;8.37;96.50;96310.72;106926;1281;22577;-85
2022/09/28 06:46:34;;;;;;;12.20;10.10;;;;;;;8.45;96.00;96308.09;107237;1281;23416;-91
2022/09/28 06:49:34;;;;;;;18.00;14.90;;;;;;;8.53;95.54;96313.86;107157;1281;25512;-89
2022/09/28 06:52:48;;;;;;;20.30;18.40;;;;;;;8.55;95.30;96312.54;107480;1281;22722;-90
2022/09/28 06:55:48;;;;;;;19.00;16.90;;;;;;;8.56;95.60;96313.98;108666;1281;22884;-87
2022/09/28 06:58:19;;;;;;;22.70;20.60;;;;;;;8.60;95.68;96315.81;108796;1282;22615;-90
2022/09/28 07:00:50;;;;;;;27.60;25.20;;;;;;;8.66;95.88;96315.43;107685;1282;25896;-91
2022/09/28 07:03:21;;;;;;;27.40;24.70;;;;;;;8.72;95.99;96310.00;107348;1282;22547;-93
2022/09/28 07:06:13;;;;;;;18.20;16.30;;;;;;;8.88;96.14;96312.96;109284;1280;23158;-85
2022/09/28 07:08:54;;;;;;;16.00;14.40;;;;;;;8.98;96.12;96310.42;109449;1268;22667;-86
2022/09/28 07:11:58;;;;;;;13.80;12.00;;;;;;;9.12;95.59;96310.42;108841;1279;22679;-92
2022/09/28 07:14:43;;;;;;;14.10;12.60;;;;;;;9.27;95.25;96313.94;107248;1279;25326;-92
2022/09/28 07:17:15;;;;;;;17.10;14.50;;;;;;;9.39;95.67;96313.21;108241;1281;24247;-89
2022/09/28 07:19:43;;;;;;;11.40;10.10;;;;;;;9.43;95.35;96311.73;107367;1281;22767;-89
2022/09/28 07:22:13;;;;;;;12.20;9.10;;;;;;;9.46;92.42;96313.89;108776;1271;22615;-89
2022/09/28 07:24:47;;;;;;;8.00;6.20;;;;;;;9.48;89.88;96320.70;108658;1279;22574;-89
2022/09/28 07:27:38;;;;;;;8.40;5.60;;;;;;;9.51;89.17;96317.88;108798;1279;22802;-87
2022/09/28 07:30:39;;;;;;;10.40;7.00;;;;;;;9.59;90.06;96318.48;108271;1280;22721;-90
2022/09/28 07:33:14;;;;;;;7.40;6.60;;;;;;;9.73;91.10;96314.02;108506;1280;22676;-91
2022/09/28 07:35:54;;;;;;;12.60;7.80;;;;;;;9.87;89.19;96319.82;107798;1281;22633;-93
2022/09/28 07:38:28;;;;;;;11.90;8.90;;;;;;;9.96;88.93;96314.83;108798;1270;22701;-88
2022/09/28 07:41:10;;;;;;;6.50;5.60;;;;;;;10.12;90.20;96311.27;108937;1270;22600;31
2022/09/28 07:43:43;;;;;;;7.20;3.90;;;;;;;10.33;89.77;96304.92;108244;1270;23157;-94
2022/09/28 07:46:20;;;;;;;8.70;5.10;;;;;;;10.46;86.42;96307.02;108961;1270;24837;-90
2022/09/28 07:48:55;;;;;;;8.50;6.20;;;;;;;10.48;84.53;96314.77;107301;1269;22631;-80
2022/09/28 07:54:30;;;;;;;6.40;4.10;;;;;;;10.59;84.46;96314.29;104203;1269;22663;-87
2022/09/28 07:57:18;;;;;;;8.30;5.30;;;;;;;10.71;83.45;96314.65;108336;1279;22848;-87
2022/09/28 07:59:53;;;;;;;4.50;4.00;;;;;;;10.84;81.64;96312.90;108101;1280;22683;-89
2022/09/28 08:02:40;;;;;;;5.20;4.40;;;;;;;10.86;81.22;96308.57;107775;1279;25947;-86
2022/09/28 08:05:08;;;;;;;5.60;3.00;;;;;;;10.86;80.49;96305.95;107433;1281;25238;-93
2022/09/28 08:07:57;;;;;;;5.40;4.30;;;;;;;10.85;78.73;96310.55;109089;1269;22523;-83
2022/09/28 08:10:49;;;;;;;5.80;3.40;;;;;;;10.80;77.70;96314.08;108602;1269;23556;-85
2022/09/28 08:13:47;;;;;;;4.00;2.80;;;;;;;10.74;76.80;96309.80;109316;1270;22548;31
2022/09/28 08:16:55;;;;;;;7.10;3.90;;;;;;;10.81;76.97;96311.78;109270;1271;22518;31
2022/09/28 08:29:31;;;;;;;4.50;3.10;;;;;;;10.95;72.72;96320.52;109241;1271;22372;31
2022/09/28 08:36:03;;;;;;;3.70;2.30;;;;;;;10.85;72.16;96307.60;107888;1274;22579;-91
2022/09/28 08:38:50;;;;;;;6.60;3.40;;;;;;;10.76;70.81;96312.79;107029;1284;25366;-92
2022/09/28 08:41:58;;;;;;;4.00;2.70;;;;;;;10.66;71.64;96313.18;106833;1284;22565;-88
2022/09/28 08:44:56;;;;;;;4.50;2.50;;;;;;;10.63;71.35;96312.40;107313;1284;22637;-87
2022/09/28 08:54:43;;;;;;;4.10;2.60;;;;;;;10.84;71.82;96304.73;107931;1287;23489;-91
2022/09/28 09:00:52;;;;;;;4.40;3.50;;;;;;;11.08;71.56;96302.60;107833;1285;22531;-87
2022/09/28 09:03:44;;;;;;;6.50;4.10;;;;;;;11.09;70.76;96299.77;107913;1287;25387;-90
2022/09/28 09:07:20;;;;;;;7.10;4.80;;;;;;;11.16;70.02;96302.89;108787;1274;24004;31
2022/09/28 09:12:40;;;;;;;4.60;3.50;;;;;;;11.34;70.15;96304.79;108526;1276;22699;-84
2022/09/28 09:15:32;;;;;;;4.00;2.90;;;;;;;11.55;68.82;96305.75;108453;1277;23277;-90
2022/09/28 09:18:22;;;;;;;5.90;2.40;;;;;;;11.64;68.03;96306.45;108239;1286;22542;-89
2022/09/28 09:21:18;;;;;;;4.00;2.60;;;;;;;11.69;68.65;96309.06;106802;1288;22698;-92
2022/09/28 09:23:55;;;;;;;5.80;2.30;;;;;;;11.67;67.14;96314.23;106613;1287;22595;-90
2022/09/28 09:26:37;;;;;;;5.80;2.60;;;;;;;11.64;67.77;96317.40;107159;1287;22589;-87
2022/09/28 09:29:28;;;;;;;5.30;3.50;;;;;;;11.82;67.61;96319.52;107565;1287;22481;-90
2022/09/28 09:32:10;;;;;;;5.40;2.30;;;;;;;12.10;66.63;96313.77;108216;1277;22614;31
2022/09/28 09:35:16;;;;;;;4.10;2.20;;;;;;;12.18;63.20;96324.72;108760;1277;22419;31
2022/09/28 09:54:36;;;;;;;3.10;2.00;;;;;;;12.74;62.21;96291.17;108967;1273;23074;-82
2022/09/28 10:00:16;;;;;;;4.40;2.20;;;;;;;12.82;62.48;96307.33;107886;1275;22555;31
2022/09/28 10:03:03;;;;;;;8.00;3.60;;;;;;;12.70;61.79;96305.77;103839;1274;22603;-85
2022/09/28 10:05:46;;;;;;;4.90;3.00;;;;;;;12.72;61.96;96299.77;107578;1284;22793;-93
2022/09/28 10:08:19;;;;;;;3.10;2.50;;;;;;;12.82;62.17;96296.91;107152;1284;22841;-89
2022/09/28 10:10:51;;;;;;;2.70;2.20;;;;;;;12.95;61.68;96300.75;107156;1284;23326;-91
2022/09/28 10:13:22;;;;;;;13.20;6.10;;;;;;;13.12;62.98;96298.71;106827;1285;23657;-89
2022/09/28 10:15:54;;;;;;;18.80;8.80;;;;;;;13.26;62.07;96297.48;107075;1285;22677;-90
2022/09/28 10:18:30;;;;;;;32.80;12.50;;;;;;;13.38;60.43;96300.92;107088;1285;23232;-88
2022/09/28 10:21:20;;;;;;;3.70;2.70;;;;;;;13.30;60.11;96306.00;108201;1285;22941;-84
2022/09/28 10:24:01;;;;;;;7.30;3.70;;;;;;;13.22;60.25;96303.64;108197;1284;24295;-83
2022/09/28 10:26:40;;;;;;;4.40;2.70;;;;;;;13.15;58.67;96307.98;108509;1274;23784;31
2022/09/28 10:31:57;;;;;;;5.20;2.10;;;;;;;13.34;60.80;96288.93;108317;1275;22493;31
2022/09/28 10:34:38;;;;;;;3.20;2.20;;;;;;;13.61;61.51;96290.46;108881;1274;22544;-86
2022/09/28 10:37:13;;;;;;;4.90;3.10;;;;;;;13.88;60.57;96295.23;107849;1285;22577;-90
2022/09/28 10:40:04;;;;;;;4.30;2.40;;;;;;;14.06;58.89;96286.88;105908;1285;22579;-89
2022/09/28 10:42:35;;;;;;;4.40;3.00;;;;;;;13.99;59.05;96286.07;106202;1285;23991;-88
2022/09/28 10:45:21;;;;;;;2.60;2.10;;;;;;;13.95;60.49;96283.96;106362;1285;22511;-89
2022/09/28 10:47:51;;;;;;;5.00;2.40;;;;;;;13.98;58.46;96274.76;106633;1285;22717;-88
2022/09/28 10:50:23;;;;;;;9.30;3.00;;;;;;;13.97;58.75;96268.62;106721;1285;23159;-91
2022/09/28 10:53:21;;;;;;;3.20;2.10;;;;;;;14.13;59.59;96263.01;106618;1285;22695;-91
2022/09/28 10:56:19;;;;;;;;;;;;;;;14.38;58.92;96257.91;106147;1286;22516;-91
2022/09/28 10:58:50;;;;;;;2.70;2.10;;;;;;;14.34;58.80;96254.98;106190;1285;22677;-88
2022/09/28 11:01:39;;;;;;;3.90;2.20;;;;;;;14.16;59.38;96256.63;106202;1287;22598;-91
2022/09/28 11:04:26;;;;;;;3.70;2.00;;;;;;;14.18;59.13;96254.88;106199;1285;23445;-88
2022/09/28 11:07:00;;;;;;;2.70;2.00;;;;;;;14.43;59.94;96243.59;106850;1286;22505;-85
2022/09/28 11:09:33;;;;;;;3.50;2.00;;;;;;;14.82;59.81;96240.38;106939;1285;22569;-88
2022/09/28 11:12:15;;;;;;;4.50;2.30;;;;;;;15.13;59.58;96232.34;107072;1285;22626;-86
2022/09/28 11:14:43;;;;;;;3.90;2.50;;;;;;;15.27;59.85;96224.06;106693;1286;22668;-88
2022/09/28 11:17:16;;;;;;;3.90;2.00;;;;;;;15.47;60.26;96217.33;106875;1285;22577;-85
2022/09/28 11:19:44;;;;;;;3.70;2.00;;;;;;;15.63;59.85;96209.89;107303;1285;25159;-84
2022/09/28 11:22:28;;;;;;;4.70;2.60;;;;;;;15.88;59.75;96202.54;106564;1285;26598;-85
2022/09/28 11:25:16;;;;;;;2.30;1.70;;;;;;;16.12;57.48;96200.65;106633;1287;22832;-86
2022/09/28 11:27:53;;;;;;;3.90;2.30;;;;;;;16.21;57.06;96207.40;106855;1285;24314;-86
2022/09/28 11:30:28;;;;;;;3.00;1.90;;;;;;;16.27;56.93;96211.88;106610;1285;23967;-89
2022/09/28 11:33:40;;;;;;;3.90;2.10;;;;;;;16.26;55.55;96210.77;107203;1285;22538;-87
2022/09/28 11:37:01;;;;;;;2.10;1.80;;;;;;;16.44;55.82;96211.22;107530;1285;24222;-86
2022/09/28 11:39:51;;;;;;;2.40;1.50;;;;;;;16.64;55.55;96206.14;107195;1286;24014;-85
2022/09/28 11:42:39;;;;;;;5.00;2.50;;;;;;;16.73;54.33;96204.34;106708;1285;22833;-86
2022/09/28 11:45:20;;;;;;;5.20;2.60;;;;;;;16.47;54.56;96200.92;106722;1285;22489;-85
2022/09/28 11:47:51;;;;;;;4.90;2.50;;;;;;;16.42;53.14;96199.72;107680;1286;23119;-85
2022/09/28 11:50:27;;;;;;;2.70;1.80;;;;;;;16.49;53.74;96195.40;107804;1285;22549;-87
2022/09/28 11:53:03;;;;;;;6.90;2.20;;;;;;;16.74;52.59;96198.45;107876;1286;22592;-85
2022/09/28 11:55:37;;;;;;;3.70;2.20;;;;;;;16.87;53.20;96188.98;108210;1286;22551;-86
2022/09/28 11:58:13;;;;;;;5.50;1.90;;;;;;;17.04;53.26;96188.27;108552;1285;22851;-89
2022/09/28 12:00:52;;;;;;;2.70;1.80;;;;;;;17.23;53.29;96188.04;108430;1285;22623;-88
2022/09/28 12:03:43;;;;;;;2.70;1.80;;;;;;;17.44;53.93;96181.57;108347;1285;22643;-90
2022/09/28 12:06:17;;;;;;;5.50;1.80;;;;;;;17.47;53.71;96180.64;106817;1285;23946;-89
2022/09/28 12:08:52;;;;;;;6.20;2.40;;;;;;;17.21;52.33;96186.16;105788;1288;22593;-89
2022/09/28 12:11:35;;;;;;;3.40;2.10;;;;;;;16.80;50.23;96195.14;105788;1285;23680;-88
2022/09/28 12:14:44;;;;;;;10.10;3.20;;;;;;;16.19;51.39;96184.55;105611;1287;23993;-87
2022/09/28 12:17:28;;;;;;;5.70;3.10;;;;;;;15.89;52.06;96181.91;105735;1286;22592;-88
2022/09/28 12:20:15;;;;;;;3.80;2.30;;;;;;;15.78;52.32;96183.13;105539;1287;22680;-88
2022/09/28 12:22:53;;;;;;;6.60;2.90;;;;;;;15.68;52.74;96179.48;106304;1285;22581;-88
2022/09/28 12:25:23;;;;;;;6.30;3.20;;;;;;;15.62;52.20;96184.42;105985;1285;22584;-85
2022/09/28 12:28:11;;;;;;;5.20;2.80;;;;;;;15.56;52.42;96179.88;105687;1286;22556;-86
2022/09/28 12:30:42;;;;;;;7.30;2.50;;;;;;;15.60;53.42;96177.74;105854;1285;24348;-87
2022/09/28 12:33:16;;;;;;;3.90;2.30;;;;;;;15.73;54.07;96179.73;105680;1287;22568;-87
2022/09/28 12:35:54;;;;;;;6.00;2.70;;;;;;;15.90;54.43;96179.67;105705;1286;24265;-86
2022/09/28 12:38:41;;;;;;;7.30;2.90;;;;;;;16.02;54.15;96175.43;105634;1285;22573;-86
2022/09/28 12:41:21;;;;;;;4.80;2.40;;;;;;;16.12;54.30;96173.33;105741;1287;24400;-87
2022/09/28 12:44:16;;;;;;;6.70;2.80;;;;;;;16.18;53.88;96170.48;105769;1287;25301;-85
2022/09/28 12:46:59;;;;;;;;;;;;;;;16.21;54.09;96161.28;105767;1287;24379;-90
2022/09/28 12:49:34;;;;;;;3.80;2.00;;;;;;;16.19;54.62;96155.67;105577;1287;26531;-83
2022/09/28 12:52:53;;;;;;;6.10;2.40;;;;;;;16.16;53.71;96158.77;105703;1285;22737;-84
2022/09/28 12:55:42;;;;;;;5.60;2.40;;;;;;;15.98;54.05;96156.38;106148;1286;26649;-86
2022/09/28 12:58:29;;;;;;;6.40;2.70;;;;;;;15.87;53.68;96155.52;105669;1287;22718;-86
2022/09/28 13:01:02;;;;;;;6.20;2.80;;;;;;;15.75;54.37;96154.80;105576;1285;22572;-82
2022/09/28 13:04:26;;;;;;;9.10;2.70;;;;;;;15.69;54.17;96154.11;105587;1287;24300;-83
2022/09/28 13:07:39;;;;;;;4.40;2.30;;;;;;;15.57;54.41;96149.87;104578;1297;24233;-83
2022/09/28 13:10:32;;;;;;;6.90;3.30;;;;;;;15.41;54.70;96151.87;103990;1303;22614;-82
2022/09/28 13:13:21;;;;;;;3.30;2.20;;;;;;;15.30;54.43;96149.91;104155;1303;23213;-83
2022/09/28 13:16:03;;;;;;;3.80;2.30;;;;;;;15.19;55.01;96153.58;104058;1303;22418;-83
2022/09/28 13:19:14;;;;;;;5.70;3.40;;;;;;;15.12;55.17;96151.35;103995;1302;22638;-85
2022/09/28 13:22:05;;;;;;;3.60;2.00;;;;;;;15.08;55.14;96153.85;103629;1309;22615;-82